Time;durP1;ratioP1;P1;durP2;ratioP2;P2;SDS_P1;SDS_P2;PMS_P1;PMS_P2;Temp;Humidity;BMP_temperature;BMP_pressure;BME280_temperature;BME280_humidity;BME280_pressure;Samples;Min_cycle;Max_cycle;Signal;HPM_P1;HPM_P2
2021/10/03 00:02:27;;;;;;;6.10;5.03;;;12.80;70.40;;;;;;5033182;28;20175;-47
2021/10/03 00:04:54;;;;;;;6.53;5.00;;;12.80;69.90;;;;;;5031269;28;20032;-47
2021/10/03 00:07:21;;;;;;;6.85;5.28;;;12.70;69.90;;;;;;5033118;28;20090;-47
2021/10/03 00:09:49;;;;;;;6.95;5.50;;;12.70;70.10;;;;;;5026141;28;20030;-47
2021/10/03 00:12:14;;;;;;;6.45;5.40;;;12.70;70.30;;;;;;5033054;28;20044;-48
2021/10/03 00:14:40;;;;;;;7.85;5.18;;;12.70;70.30;;;;;;5032053;28;20021;-47
2021/10/03 00:17:06;;;;;;;7.53;5.07;;;12.70;70.50;;;;;;5032624;28;20037;-47
2021/10/03 00:19:31;;;;;;;6.88;4.75;;;12.60;70.60;;;;;;5032409;28;20025;-47
2021/10/03 00:21:58;;;;;;;6.47;5.20;;;12.60;70.70;;;;;;5033072;28;20032;-46
2021/10/03 00:24:26;;;;;;;9.05;5.43;;;12.60;71.00;;;;;;5032766;28;20029;-47
2021/10/03 00:26:52;;;;;;;7.95;5.95;;;12.60;71.10;;;;;;5030308;28;20034;-47
2021/10/03 00:29:18;;;;;;;7.20;5.75;;;12.60;71.10;;;;;;5032561;28;20362;-46
2021/10/03 00:31:44;;;;;;;6.68;5.28;;;12.60;71.10;;;;;;5033043;28;20109;-47
2021/10/03 00:34:09;;;;;;;9.25;5.70;;;12.60;71.30;;;;;;5032555;28;20068;-47
2021/10/03 00:36:35;;;;;;;6.95;5.40;;;12.60;71.40;;;;;;5029561;28;20025;-48
2021/10/03 00:39:01;;;;;;;9.02;6.07;;;12.70;71.60;;;;;;5031763;28;20129;-47
2021/10/03 00:41:26;;;;;;;7.30;5.57;;;12.70;71.70;;;;;;5030774;28;20101;-47
2021/10/03 00:43:53;;;;;;;6.35;5.00;;;12.70;71.90;;;;;;5033048;28;20087;-47
2021/10/03 00:46:19;;;;;;;7.95;5.45;;;12.70;71.80;;;;;;5032877;28;20033;-47
2021/10/03 00:48:44;;;;;;;8.68;5.72;;;12.70;71.80;;;;;;5032350;28;20068;-47
2021/10/03 00:51:10;;;;;;;8.65;5.05;;;12.70;71.70;;;;;;5031545;28;20076;-47
2021/10/03 00:53:36;;;;;;;8.18;5.57;;;12.70;71.80;;;;;;5032736;28;20385;-48
2021/10/03 00:56:02;;;;;;;8.38;5.45;;;12.70;71.90;;;;;;5032499;28;20075;-47
2021/10/03 00:58:28;;;;;;;6.22;5.00;;;12.70;72.00;;;;;;5023807;28;20042;-47
2021/10/03 01:00:54;;;;;;;7.13;4.85;;;12.60;71.90;;;;;;5028522;28;20035;-48
2021/10/03 01:03:20;;;;;;;7.25;4.95;;;12.60;72.00;;;;;;5032611;28;20171;-47
2021/10/03 01:05:45;;;;;;;6.25;5.18;;;12.60;72.00;;;;;;5032110;28;20526;-47
2021/10/03 01:08:12;;;;;;;7.88;5.35;;;12.60;72.10;;;;;;5032296;28;20107;-47
2021/10/03 01:10:37;;;;;;;6.18;4.78;;;12.60;72.10;;;;;;5032623;28;20152;-47
2021/10/03 01:13:09;;;;;;;7.97;5.18;;;12.60;72.20;;;;;;5031520;28;20477;-48
2021/10/03 01:15:39;;;;;;;6.25;4.63;;;12.60;72.20;;;;;;5019765;28;20042;-47
2021/10/03 01:18:05;;;;;;;6.50;4.90;;;12.60;72.30;;;;;;5019411;28;20073;-47
2021/10/03 01:20:32;;;;;;;7.47;5.05;;;12.50;72.20;;;;;;5033266;28;20040;-47
2021/10/03 01:23:03;;;;;;;9.13;5.07;;;12.50;72.20;;;;;;5035844;28;20021;-47
2021/10/03 01:25:33;;;;;;;6.10;5.03;;;12.60;72.30;;;;;;5036146;28;20033;-47
2021/10/03 01:28:00;;;;;;;6.32;4.97;;;12.60;72.40;;;;;;5036007;28;20036;-47
2021/10/03 01:30:27;;;;;;;6.22;4.90;;;12.50;72.20;;;;;;5033418;28;20411;-48
2021/10/03 01:32:52;;;;;;;7.63;5.35;;;12.50;72.10;;;;;;5035234;28;20045;-47
2021/10/03 01:35:19;;;;;;;7.25;5.30;;;12.50;72.20;;;;;;5035901;28;20072;-47
2021/10/03 01:37:45;;;;;;;7.30;5.57;;;12.50;72.10;;;;;;5034741;28;20045;-47
2021/10/03 01:40:12;;;;;;;6.95;5.32;;;12.50;72.10;;;;;;5035009;28;20084;-47
2021/10/03 01:42:39;;;;;;;7.00;5.50;;;12.40;72.10;;;;;;5035810;28;20024;-47
2021/10/03 01:45:07;;;;;;;7.32;5.45;;;12.40;72.10;;;;;;5035717;28;20472;-47
2021/10/03 01:47:33;;;;;;;7.05;5.35;;;12.40;72.20;;;;;;5022546;28;20022;-47
2021/10/03 01:49:59;;;;;;;8.43;5.50;;;12.30;72.10;;;;;;5035153;28;20026;-48
2021/10/03 01:52:25;;;;;;;6.93;4.93;;;12.30;72.10;;;;;;5035569;28;20056;-47
2021/10/03 01:54:50;;;;;;;7.10;5.45;;;12.30;72.30;;;;;;5034592;28;20060;-47
2021/10/03 01:57:16;;;;;;;7.43;5.40;;;12.30;72.60;;;;;;5031336;28;20468;-47
2021/10/03 01:59:42;;;;;;;6.63;5.28;;;12.30;72.60;;;;;;5035192;28;20029;-47
2021/10/03 02:02:08;;;;;;;6.43;4.70;;;12.30;72.80;;;;;;5035124;28;20029;-47
2021/10/03 02:04:33;;;;;;;6.93;5.40;;;12.30;72.80;;;;;;5034412;28;20060;-47
2021/10/03 02:07:01;;;;;;;7.32;5.20;;;12.30;72.80;;;;;;5035404;28;20022;-46
2021/10/03 02:09:28;;;;;;;7.97;5.43;;;12.30;72.90;;;;;;5034425;28;20037;-47
2021/10/03 02:11:57;;;;;;;7.80;5.38;;;12.30;72.90;;;;;;5030065;28;20025;-47
2021/10/03 02:14:30;;;;;;;6.93;5.20;;;12.30;73.10;;;;;;5035106;28;20030;-47
2021/10/03 02:16:59;;;;;;;8.48;5.50;;;12.30;73.00;;;;;;5034498;28;20038;-47
2021/10/03 02:19:27;;;;;;;6.63;5.10;;;12.30;73.00;;;;;;5032446;28;20037;-47
2021/10/03 02:21:53;;;;;;;7.32;5.50;;;12.30;73.10;;;;;;5034539;28;20029;-47
2021/10/03 02:24:19;;;;;;;7.60;5.72;;;12.30;73.00;;;;;;5033986;28;20025;-47
2021/10/03 02:26:45;;;;;;;7.60;5.35;;;12.30;73.00;;;;;;5033418;28;20021;-47
2021/10/03 02:29:11;;;;;;;6.32;4.93;;;12.30;73.00;;;;;;5034015;28;20115;-46
2021/10/03 02:31:37;;;;;;;7.85;5.25;;;12.30;73.00;;;;;;5032622;28;20060;-47
2021/10/03 02:34:04;;;;;;;8.13;5.78;;;12.30;73.00;;;;;;5033918;28;20026;-47
2021/10/03 02:36:30;;;;;;;7.68;5.45;;;12.30;73.30;;;;;;5031413;28;20026;-46
2021/10/03 02:38:56;;;;;;;6.80;4.80;;;12.30;73.10;;;;;;5031582;28;20041;-47
2021/10/03 02:41:23;;;;;;;5.45;4.70;;;12.40;73.20;;;;;;5032921;28;20061;-47
2021/10/03 02:43:52;;;;;;;6.20;4.82;;;12.40;73.20;;;;;;5033450;28;20493;-47
2021/10/03 02:46:19;;;;;;;6.65;5.15;;;12.40;73.10;;;;;;5033727;28;20022;-47
2021/10/03 02:48:49;;;;;;;7.65;5.55;;;12.40;73.00;;;;;;5033273;28;20055;-47
2021/10/03 02:51:23;;;;;;;7.30;5.63;;;12.40;72.90;;;;;;5026589;28;20026;-46
2021/10/03 02:53:50;;;;;;;7.53;5.10;;;12.40;73.00;;;;;;5034090;28;20116;-46
2021/10/03 02:56:17;;;;;;;6.47;4.85;;;12.40;73.00;;;;;;5033056;28;20384;-47
2021/10/03 02:58:43;;;;;;;7.25;5.40;;;12.40;72.90;;;;;;5033877;28;20017;-47
2021/10/03 03:01:09;;;;;;;6.70;4.93;;;12.40;72.80;;;;;;5034067;28;20068;-47
2021/10/03 03:03:36;;;;;;;7.38;5.07;;;12.30;72.70;;;;;;5033439;28;20592;-47
2021/10/03 03:06:06;;;;;;;8.00;5.22;;;12.30;72.70;;;;;;5034399;28;20105;-47
2021/10/03 03:08:32;;;;;;;6.50;4.93;;;12.30;72.60;;;;;;5033293;28;20480;-47
2021/10/03 03:10:58;;;;;;;5.85;4.80;;;12.30;72.60;;;;;;5034263;28;20025;-46
2021/10/03 03:13:24;;;;;;;7.40;5.10;;;12.30;72.70;;;;;;5033404;28;20478;-47
2021/10/03 03:15:50;;;;;;;7.57;5.65;;;12.30;72.70;;;;;;5033744;28;20029;-48
2021/10/03 03:18:15;;;;;;;8.88;6.03;;;12.20;72.50;;;;;;5033297;28;20022;-47
2021/10/03 03:20:41;;;;;;;6.68;4.97;;;12.20;72.50;;;;;;5033897;28;20040;-47
2021/10/03 03:23:07;;;;;;;7.20;5.05;;;12.10;72.30;;;;;;5033837;28;20025;-47
2021/10/03 03:25:33;;;;;;;5.38;4.68;;;12.10;72.50;;;;;;5033103;28;20026;-47
2021/10/03 03:27:58;;;;;;;5.93;4.68;;;12.10;72.40;;;;;;5033451;28;20029;-47
2021/10/03 03:30:24;;;;;;;5.40;4.80;;;12.10;72.60;;;;;;5029854;28;20103;-47
2021/10/03 03:32:50;;;;;;;6.25;4.30;;;12.10;72.60;;;;;;5033005;28;20022;-46
2021/10/03 03:35:15;;;;;;;6.22;4.25;;;12.10;72.70;;;;;;5033548;28;20125;-46
2021/10/03 03:37:41;;;;;;;6.30;4.50;;;12.10;72.70;;;;;;5032404;28;20112;-46
2021/10/03 03:40:10;;;;;;;7.40;5.25;;;12.10;72.70;;;;;;5033228;28;20485;-47
2021/10/03 03:42:35;;;;;;;5.90;4.60;;;12.00;72.70;;;;;;5033396;28;20087;-47
2021/10/03 03:45:02;;;;;;;5.68;4.30;;;12.10;72.70;;;;;;5032397;28;20469;-47
2021/10/03 03:47:27;;;;;;;6.82;4.38;;;12.00;72.60;;;;;;5033559;28;20075;-47
2021/10/03 03:49:53;;;;;;;6.82;5.00;;;12.00;72.70;;;;;;5033036;28;20424;-47
2021/10/03 03:52:19;;;;;;;5.75;4.40;;;12.00;72.70;;;;;;5033658;28;20022;-47
2021/10/03 03:54:45;;;;;;;7.10;5.13;;;12.00;72.70;;;;;;5033251;28;20093;-46
2021/10/03 03:57:12;;;;;;;7.35;4.90;;;12.00;72.80;;;;;;5026116;28;20029;-47
2021/10/03 03:59:37;;;;;;;5.50;4.28;;;12.00;72.90;;;;;;5015274;28;20401;-47
2021/10/03 04:02:04;;;;;;;5.63;4.60;;;12.00;72.90;;;;;;5033407;28;20021;-47
2021/10/03 04:04:30;;;;;;;6.55;4.53;;;12.00;72.90;;;;;;5032088;28;20040;-46
2021/10/03 04:06:55;;;;;;;5.60;4.28;;;12.00;72.80;;;;;;5033132;28;20025;-47
2021/10/03 04:09:21;;;;;;;7.03;5.15;;;11.90;72.80;;;;;;5032864;28;20392;-46
2021/10/03 04:11:47;;;;;;;5.88;4.53;;;12.00;73.00;;;;;;5033291;28;20026;-46
2021/10/03 04:14:12;;;;;;;5.90;4.75;;;12.00;73.00;;;;;;5033197;28;20454;-47
2021/10/03 04:16:38;;;;;;;5.97;4.55;;;11.90;73.00;;;;;;5031627;28;20381;-47
2021/10/03 04:19:04;;;;;;;7.18;4.97;;;11.90;73.20;;;;;;5032573;28;20029;-46
2021/10/03 04:21:30;;;;;;;7.20;5.18;;;11.90;73.20;;;;;;5032516;28;20022;-46
2021/10/03 04:23:56;;;;;;;6.40;5.28;;;11.90;73.20;;;;;;5033033;28;20040;-47
2021/10/03 04:26:22;;;;;;;6.88;4.43;;;11.90;73.20;;;;;;5032692;28;20017;-47
2021/10/03 04:28:48;;;;;;;6.00;4.55;;;12.00;73.20;;;;;;5033055;28;20105;-47
2021/10/03 04:31:13;;;;;;;7.55;4.53;;;12.00;73.20;;;;;;5032332;28;20022;-47
2021/10/03 04:33:41;;;;;;;7.32;4.75;;;11.90;73.20;;;;;;5027838;28;20033;-47
2021/10/03 04:36:09;;;;;;;5.80;4.60;;;12.00;73.30;;;;;;5032885;28;20469;-47
2021/10/03 04:38:35;;;;;;;5.70;4.30;;;12.00;73.40;;;;;;5030330;28;20064;-46
2021/10/03 04:41:02;;;;;;;6.00;4.55;;;12.00;73.30;;;;;;5032450;28;20033;-46
2021/10/03 04:43:27;;;;;;;5.65;4.70;;;12.10;73.40;;;;;;5032815;28;20032;-47
2021/10/03 04:45:53;;;;;;;5.57;4.50;;;12.10;73.20;;;;;;5032733;28;20033;-47
2021/10/03 04:48:18;;;;;;;5.80;4.30;;;12.10;73.20;;;;;;5032216;28;20028;-47
2021/10/03 04:50:45;;;;;;;6.07;4.38;;;12.10;73.70;;;;;;5031929;28;20536;-47
2021/10/03 04:53:10;;;;;;;5.32;4.20;;;12.10;72.90;;;;;;5033133;28;20033;-47
2021/10/03 04:55:36;;;;;;;6.25;4.20;;;12.20;72.90;;;;;;5034069;28;20483;-47
2021/10/03 04:58:02;;;;;;;5.40;4.68;;;12.20;72.90;;;;;;5036532;28;20060;-46
2021/10/03 05:00:28;;;;;;;7.28;4.50;;;12.20;72.70;;;;;;5031480;28;20449;-46
2021/10/03 05:02:54;;;;;;;6.70;4.55;;;12.20;72.60;;;;;;5028173;28;20131;-47
2021/10/03 05:05:20;;;;;;;5.00;4.18;;;12.30;72.70;;;;;;5034068;28;20393;-47
2021/10/03 05:07:46;;;;;;;5.20;3.97;;;12.30;72.50;;;;;;5020769;28;20032;-47
2021/10/03 05:10:12;;;;;;;5.22;4.40;;;12.30;72.40;;;;;;5033557;28;20392;-47
2021/10/03 05:12:37;;;;;;;5.65;4.38;;;12.30;72.40;;;;;;5033296;28;20029;-47
2021/10/03 05:15:04;;;;;;;6.28;4.68;;;12.30;72.20;;;;;;5033366;28;20379;-47
2021/10/03 05:17:30;;;;;;;5.82;4.00;;;12.40;72.20;;;;;;5035671;28;20021;-47
2021/10/03 05:19:56;;;;;;;7.20;4.80;;;12.40;72.10;;;;;;5034692;28;20044;-47
2021/10/03 05:22:24;;;;;;;6.38;4.82;;;12.40;72.10;;;;;;5029912;28;20034;-47
2021/10/03 05:24:53;;;;;;;5.65;4.75;;;12.40;72.10;;;;;;5019860;28;20032;-46
2021/10/03 05:27:19;;;;;;;7.05;5.30;;;12.40;72.10;;;;;;5035623;28;20492;-47
2021/10/03 05:29:45;;;;;;;5.75;4.60;;;12.40;72.00;;;;;;5035842;28;20524;-47
2021/10/03 05:32:11;;;;;;;5.72;4.50;;;12.40;72.00;;;;;;5034407;28;20050;-47
2021/10/03 05:34:36;;;;;;;6.60;4.95;;;12.40;71.90;;;;;;5034195;28;20037;-47
2021/10/03 05:37:02;;;;;;;6.22;4.85;;;12.40;71.90;;;;;;5035155;28;20022;-46
2021/10/03 05:39:28;;;;;;;5.53;4.55;;;12.40;71.90;;;;;;5035100;28;20045;-46
2021/10/03 05:41:54;;;;;;;5.72;4.57;;;12.40;72.00;;;;;;5035331;28;20087;-47
2021/10/03 05:44:20;;;;;;;6.10;4.38;;;12.40;72.00;;;;;;5035612;28;20026;-46
2021/10/03 05:46:45;;;;;;;4.78;3.95;;;12.40;72.00;;;;;;5015943;28;20018;-47
2021/10/03 05:49:11;;;;;;;5.43;4.25;;;12.40;71.90;;;;;;5016489;28;20030;-47
2021/10/03 05:51:37;;;;;;;5.70;4.90;;;12.40;71.90;;;;;;5034729;28;20083;-47
2021/10/03 05:54:03;;;;;;;6.35;4.57;;;12.50;71.80;;;;;;5035963;28;20029;-46
2021/10/03 05:56:29;;;;;;;5.57;4.32;;;12.50;71.90;;;;;;5035168;28;20544;-47
2021/10/03 05:58:54;;;;;;;7.15;4.93;;;12.60;72.00;;;;;;5020517;28;20109;-46
2021/10/03 06:01:20;;;;;;;7.32;5.00;;;12.70;72.00;;;;;;5031562;28;20025;-47
2021/10/03 06:03:46;;;;;;;5.53;4.40;;;12.70;71.80;;;;;;5035510;28;20018;-47
2021/10/03 06:06:11;;;;;;;5.15;4.10;;;12.70;71.80;;;;;;5034695;28;20052;-47
2021/10/03 06:08:37;;;;;;;5.95;4.25;;;12.80;71.70;;;;;;5034403;28;20056;-47
2021/10/03 06:11:03;;;;;;;5.97;4.72;;;12.90;71.60;;;;;;5035133;28;20032;-50
2021/10/03 06:13:29;;;;;;;5.95;4.78;;;12.90;71.40;;;;;;5034269;28;20041;-46
2021/10/03 06:15:57;;;;;;;7.13;5.10;;;12.90;71.40;;;;;;5034572;28;20025;-47
2021/10/03 06:18:23;;;;;;;5.15;4.40;;;12.90;71.20;;;;;;5035106;28;20064;-46
2021/10/03 06:20:49;;;;;;;7.05;4.85;;;13.00;71.20;;;;;;5034751;28;20455;-47
2021/10/03 06:23:15;;;;;;;5.95;4.30;;;13.10;71.10;;;;;;5035140;28;20100;-47
2021/10/03 06:25:41;;;;;;;7.07;5.32;;;13.20;70.90;;;;;;5034141;28;20026;-47
2021/10/03 06:28:07;;;;;;;5.78;5.18;;;13.30;70.70;;;;;;5035035;28;20022;-47
2021/10/03 06:30:33;;;;;;;6.90;5.05;;;13.30;70.50;;;;;;5034749;28;20617;-47
2021/10/03 06:33:00;;;;;;;5.32;4.25;;;13.30;70.20;;;;;;5033200;28;20036;-47
2021/10/03 06:35:28;;;;;;;5.95;4.72;;;13.30;70.30;;;;;;5034760;28;20035;-47
2021/10/03 06:37:54;;;;;;;5.90;4.70;;;13.40;70.50;;;;;;5034682;28;20548;-47
2021/10/03 06:40:20;;;;;;;6.25;4.93;;;13.40;70.50;;;;;;5028389;28;20065;-47
2021/10/03 06:42:46;;;;;;;6.57;4.57;;;13.40;70.60;;;;;;5034774;28;20101;-47
2021/10/03 06:45:12;;;;;;;5.80;4.38;;;13.40;70.40;;;;;;5034441;28;20108;-46
2021/10/03 06:47:37;;;;;;;8.48;5.65;;;13.50;70.30;;;;;;5034415;28;20033;-47
2021/10/03 06:50:05;;;;;;;7.07;5.32;;;13.50;70.20;;;;;;5034500;28;20029;-47
2021/10/03 06:52:30;;;;;;;7.63;5.30;;;13.50;69.90;;;;;;5033027;28;20105;-47
2021/10/03 06:54:56;;;;;;;6.80;5.40;;;13.40;69.70;;;;;;5034451;28;20181;-47
2021/10/03 06:57:22;;;;;;;6.38;5.30;;;13.30;69.90;;;;;;5034445;28;20030;-46
2021/10/03 06:59:47;;;;;;;7.28;5.90;;;13.20;70.20;;;;;;5034342;28;20110;-47
2021/10/03 07:02:19;;;;;;;5.82;4.63;;;13.10;70.30;;;;;;5033384;28;20037;-47
2021/10/03 07:04:45;;;;;;;9.30;5.38;;;13.20;70.50;;;;;;5033974;28;20041;-47
2021/10/03 07:07:10;;;;;;;7.20;5.50;;;13.10;70.60;;;;;;5030716;28;20022;-49
2021/10/03 07:09:36;;;;;;;7.05;5.07;;;13.10;70.60;;;;;;5031997;28;20025;-47
2021/10/03 07:12:02;;;;;;;7.97;5.93;;;13.10;70.80;;;;;;5033506;28;20034;-47
2021/10/03 07:14:28;;;;;;;7.20;5.28;;;13.10;70.90;;;;;;5033669;28;20068;-46
2021/10/03 07:16:53;;;;;;;7.25;5.65;;;13.00;70.80;;;;;;5034064;28;20060;-47
2021/10/03 07:19:19;;;;;;;6.53;4.82;;;13.00;71.20;;;;;;5033300;28;20037;-46
2021/10/03 07:21:45;;;;;;;6.65;5.30;;;13.00;71.20;;;;;;5033474;28;20036;-46
2021/10/03 07:24:10;;;;;;;6.13;5.10;;;13.00;71.20;;;;;;5033738;28;20029;-47
2021/10/03 07:26:36;;;;;;;8.00;5.03;;;13.10;71.20;;;;;;5033502;28;20439;-46
2021/10/03 07:29:03;;;;;;;5.63;4.43;;;13.10;71.30;;;;;;5033778;28;20033;-47
2021/10/03 07:31:29;;;;;;;5.63;4.90;;;13.10;71.20;;;;;;5033912;28;20108;-47
2021/10/03 07:33:55;;;;;;;6.78;5.55;;;13.20;71.20;;;;;;5033422;28;20036;-47
2021/10/03 07:36:20;;;;;;;6.30;4.82;;;13.30;71.10;;;;;;5033491;28;20375;-47
2021/10/03 07:38:47;;;;;;;5.97;5.18;;;13.30;71.00;;;;;;5033182;28;20446;-47
2021/10/03 07:41:13;;;;;;;6.82;4.68;;;13.30;70.90;;;;;;5033465;28;20026;-46
2021/10/03 07:43:39;;;;;;;6.57;5.00;;;13.40;70.90;;;;;;5014799;28;20030;-47
2021/10/03 07:46:05;;;;;;;5.88;4.75;;;13.40;70.70;;;;;;5019409;28;20102;-47
2021/10/03 07:48:30;;;;;;;6.35;4.47;;;13.40;70.70;;;;;;5020592;28;20469;-47
2021/10/03 07:50:56;;;;;;;6.68;5.32;;;13.50;70.70;;;;;;5033218;28;20022;-47
2021/10/03 07:53:21;;;;;;;7.45;4.95;;;13.50;70.70;;;;;;5033304;28;20025;-47
2021/10/03 07:55:47;;;;;;;5.53;4.68;;;13.50;70.60;;;;;;5033350;28;20420;-46
2021/10/03 07:58:13;;;;;;;6.20;4.70;;;13.50;70.60;;;;;;5033368;28;20370;-46
2021/10/03 08:00:39;;;;;;;6.50;4.75;;;13.60;70.70;;;;;;5033343;28;20030;-47
2021/10/03 08:03:05;;;;;;;6.20;4.80;;;13.60;70.60;;;;;;5031885;28;20021;-47
2021/10/03 08:05:33;;;;;;;5.70;4.57;;;13.70;70.50;;;;;;5022394;28;20029;-47
2021/10/03 08:08:00;;;;;;;6.68;4.75;;;13.70;70.60;;;;;;5032949;28;20026;-46
2021/10/03 08:10:26;;;;;;;6.03;4.25;;;13.70;70.50;;;;;;5032942;28;20113;-47
2021/10/03 08:12:52;;;;;;;5.45;4.60;;;13.80;70.40;;;;;;5015364;28;20048;-47
2021/10/03 08:15:18;;;;;;;6.03;4.60;;;13.80;70.20;;;;;;5032643;28;20105;-47
2021/10/03 08:17:43;;;;;;;4.47;3.92;;;13.90;70.30;;;;;;5038207;28;20408;-48
2021/10/03 08:20:10;;;;;;;5.30;4.05;;;13.90;70.30;;;;;;5044241;28;20531;-47
2021/10/03 08:22:36;;;;;;;5.50;4.60;;;13.90;70.00;;;;;;5032569;28;20508;-47
2021/10/03 08:25:05;;;;;;;4.88;4.13;;;13.90;70.50;;;;;;5032265;28;20329;-47
2021/10/03 08:27:33;;;;;;;5.10;4.45;;;13.90;69.70;;;;;;5033084;28;20473;-47
2021/10/03 08:29:59;;;;;;;5.38;4.32;;;14.00;69.80;;;;;;5033041;28;20164;-47
2021/10/03 08:32:24;;;;;;;4.82;4.07;;;14.00;69.80;;;;;;5037090;28;20083;-47
2021/10/03 08:34:50;;;;;;;5.90;5.30;;;14.00;69.60;;;;;;5036817;28;20084;-47
2021/10/03 08:37:16;;;;;;;5.60;3.90;;;14.00;69.40;;;;;;5035976;28;20396;-47
2021/10/03 08:39:43;;;;;;;5.32;4.18;;;14.00;69.20;;;;;;5034195;28;20061;-47
2021/10/03 08:42:08;;;;;;;5.32;3.97;;;14.00;69.40;;;;;;5017234;28;20048;-47
2021/10/03 08:44:34;;;;;;;5.05;3.88;;;14.00;69.50;;;;;;5018770;28;20033;-48
2021/10/03 08:47:00;;;;;;;7.30;4.47;;;14.00;69.40;;;;;;5037011;28;20022;-47
2021/10/03 08:49:26;;;;;;;5.35;4.72;;;14.10;69.60;;;;;;5036508;28;20064;-47
2021/10/03 08:51:51;;;;;;;4.95;3.90;;;14.10;69.40;;;;;;5036478;28;20025;-47
2021/10/03 08:54:18;;;;;;;5.30;4.10;;;14.10;69.30;;;;;;5034953;28;20021;-47
2021/10/03 08:56:47;;;;;;;6.47;4.47;;;14.10;69.10;;;;;;5036219;28;20037;-46
2021/10/03 08:59:13;;;;;;;5.38;3.72;;;14.10;69.00;;;;;;5036736;28;20456;-47
2021/10/03 09:01:51;;;;;;;5.35;3.80;;;14.10;69.10;;;;;;5036152;28;20520;-47
2021/10/03 09:04:37;;;;;;;4.15;3.75;;;14.20;69.10;;;;;;5036223;28;20433;-46
2021/10/03 09:07:11;;;;;;;5.00;4.00;;;14.20;68.90;;;;;;5016897;28;20492;-47
2021/10/03 09:09:53;;;;;;;5.55;4.10;;;14.20;68.60;;;;;;5022250;28;20499;-47
2021/10/03 09:12:36;;;;;;;5.28;4.10;;;14.20;68.50;;;;;;5035550;28;20061;-47
2021/10/03 09:15:14;;;;;;;4.88;3.90;;;14.20;68.30;;;;;;5036110;28;20545;-47
2021/10/03 09:17:40;;;;;;;4.15;3.20;;;14.20;68.40;;;;;;5036366;28;20030;-46
2021/10/03 09:20:12;;;;;;;5.93;4.22;;;14.30;68.40;;;;;;5036178;28;20114;-47
2021/10/03 09:23:00;;;;;;;4.43;3.75;;;14.30;68.30;;;;;;5028857;28;20030;-46
2021/10/03 09:25:53;;;;;;;5.30;3.80;;;14.30;67.90;;;;;;5035962;28;20029;-46
2021/10/03 09:28:25;;;;;;;6.07;3.75;;;14.30;67.50;;;;;;5033449;28;20042;-47
2021/10/03 09:31:07;;;;;;;5.28;3.53;;;14.30;67.40;;;;;;5035223;28;20021;-47
2021/10/03 09:33:47;;;;;;;4.60;3.67;;;14.30;67.40;;;;;;5036299;28;20033;-47
2021/10/03 09:36:16;;;;;;;4.45;3.50;;;14.40;67.50;;;;;;5036095;28;20489;-47
2021/10/03 09:38:57;;;;;;;3.92;3.25;;;14.40;67.50;;;;;;5035467;28;20504;-47
2021/10/03 09:41:26;;;;;;;5.82;3.30;;;14.40;67.50;;;;;;5035274;28;20110;-46
2021/10/03 09:43:57;;;;;;;4.20;3.10;;;14.40;67.30;;;;;;5031589;28;20061;-47
2021/10/03 09:46:33;;;;;;;5.57;3.47;;;14.50;67.30;;;;;;5031769;28;20678;-46
2021/10/03 09:49:00;;;;;;;3.95;3.05;;;14.50;67.30;;;;;;5035146;28;20028;-47
2021/10/03 09:51:26;;;;;;;3.50;3.20;;;14.50;67.20;;;;;;5035299;28;20071;-46
2021/10/03 09:53:52;;;;;;;4.75;3.40;;;14.60;67.40;;;;;;5035640;28;20415;-47
2021/10/03 09:56:18;;;;;;;3.70;3.10;;;14.60;67.50;;;;;;5035463;28;20033;-47
2021/10/03 09:58:46;;;;;;;4.40;3.10;;;14.60;67.00;;;;;;5032503;28;20086;-47
2021/10/03 10:01:13;;;;;;;3.90;2.88;;;14.60;66.50;;;;;;5015783;28;20080;-47
2021/10/03 10:03:39;;;;;;;4.65;3.20;;;14.60;66.10;;;;;;5031367;28;20028;-47
2021/10/03 10:06:05;;;;;;;2.83;2.53;;;14.60;65.50;;;;;;5035054;28;20033;-47
2021/10/03 10:08:38;;;;;;;3.80;2.90;;;14.70;65.30;;;;;;5035261;28;20025;-47
2021/10/03 10:11:08;;;;;;;3.08;2.78;;;14.60;65.40;;;;;;5035072;28;20033;-46
2021/10/03 10:13:35;;;;;;;2.80;2.60;;;14.70;65.20;;;;;;5035259;28;20037;-47
2021/10/03 10:16:30;;;;;;;3.38;3.05;;;14.70;65.30;;;;;;5034831;28;20025;-47
2021/10/03 10:19:32;;;;;;;3.78;3.30;;;14.70;64.90;;;;;;5021654;28;20405;-47
2021/10/03 10:22:15;;;;;;;3.53;3.03;;;14.70;64.90;;;;;;5027658;28;20083;-47
2021/10/03 10:24:44;;;;;;;3.92;2.90;;;14.80;65.30;;;;;;5034894;28;20025;-47
2021/10/03 10:27:29;;;;;;;5.15;3.38;;;14.80;65.10;;;;;;5035313;28;20052;-47
2021/10/03 10:29:59;;;;;;;3.78;2.75;;;14.80;65.00;;;;;;5034710;28;20025;-47
2021/10/03 10:32:57;;;;;;;3.47;3.05;;;14.80;64.90;;;;;;5034591;28;20026;-47
2021/10/03 10:35:31;;;;;;;4.40;3.10;;;14.80;65.00;;;;;;5029428;28;20037;-47
2021/10/03 10:37:56;;;;;;;3.55;2.95;;;14.80;65.10;;;;;;5034398;28;20028;-46
2021/10/03 10:40:22;;;;;;;3.95;3.28;;;14.80;65.10;;;;;;5032250;28;20026;-47
2021/10/03 10:42:52;;;;;;;4.35;3.40;;;14.80;65.10;;;;;;5034872;28;20028;-47
2021/10/03 10:45:39;;;;;;;3.17;2.87;;;14.90;65.10;;;;;;5034726;28;20385;-47
2021/10/03 10:48:11;;;;;;;4.03;3.15;;;14.90;64.80;;;;;;5028914;28;20385;-46
2021/10/03 10:50:48;;;;;;;3.92;3.00;;;14.90;64.90;;;;;;5027015;28;20029;-46
2021/10/03 10:53:17;;;;;;;4.28;2.95;;;14.90;64.90;;;;;;5033571;28;20033;-47
2021/10/03 10:56:02;;;;;;;4.13;3.08;;;14.90;64.70;;;;;;5034438;28;20380;-47
2021/10/03 10:58:28;;;;;;;3.10;2.80;;;14.90;64.50;;;;;;5034664;28;20064;-48
2021/10/03 11:01:00;;;;;;;3.25;2.63;;;14.90;64.70;;;;;;5034214;28;20029;-47
2021/10/03 11:03:44;;;;;;;3.63;2.80;;;14.90;64.50;;;;;;5034094;28;20120;-47
2021/10/03 11:06:41;;;;;;;2.97;2.70;;;15.00;64.50;;;;;;5033416;28;20028;-47
2021/10/03 11:09:10;;;;;;;3.85;3.15;;;15.00;64.50;;;;;;5036876;28;20028;-46
2021/10/03 11:11:39;;;;;;;3.28;2.88;;;15.00;64.60;;;;;;5054521;28;20029;-47
2021/10/03 11:14:09;;;;;;;3.05;2.75;;;15.00;64.30;;;;;;5054175;28;20029;-47
2021/10/03 11:16:35;;;;;;;3.95;3.47;;;15.00;63.80;;;;;;5035858;28;20036;-47
2021/10/03 11:19:24;;;;;;;3.72;3.13;;;15.00;63.90;;;;;;5034064;28;20072;-47
2021/10/03 11:21:51;;;;;;;3.55;2.90;;;15.00;64.00;;;;;;5033181;28;20064;-47
2021/10/03 11:24:24;;;;;;;3.88;3.17;;;15.00;64.00;;;;;;5034000;28;20079;-46
2021/10/03 11:26:54;;;;;;;4.75;3.03;;;15.00;64.00;;;;;;5034156;28;20104;-46
2021/10/03 11:29:22;;;;;;;3.35;3.05;;;15.00;64.00;;;;;;5034156;28;20021;-47
2021/10/03 11:31:54;;;;;;;3.33;2.97;;;15.00;63.70;;;;;;5033841;28;20048;-47
2021/10/03 11:34:35;;;;;;;3.58;3.22;;;15.00;63.50;;;;;;5033985;28;20027;-47
2021/10/03 11:37:05;;;;;;;3.53;3.08;;;14.90;63.00;;;;;;5018702;28;20029;-47
2021/10/03 11:39:40;;;;;;;3.05;2.78;;;14.90;63.10;;;;;;5027542;28;20131;-46
2021/10/03 11:42:30;;;;;;;3.88;2.95;;;14.90;63.40;;;;;;5033277;28;20465;-47
2021/10/03 11:45:12;;;;;;;4.93;3.33;;;14.90;62.70;;;;;;5022611;28;20477;-46
2021/10/03 11:47:38;;;;;;;5.45;3.20;;;14.90;62.90;;;;;;5033308;28;20025;-47
2021/10/03 11:50:04;;;;;;;4.60;3.70;;;14.80;63.00;;;;;;5033313;28;20025;-47
2021/10/03 11:52:35;;;;;;;4.68;3.38;;;14.80;62.30;;;;;;5032507;28;20036;-47
2021/10/03 11:55:30;;;;;;;4.60;3.35;;;14.80;62.50;;;;;;5029198;28;20027;-47
2021/10/03 11:58:01;;;;;;;5.07;3.90;;;14.70;62.90;;;;;;5033439;28;20037;-47
2021/10/03 12:00:27;;;;;;;4.55;3.38;;;14.70;63.40;;;;;;5033144;28;20025;-47
2021/10/03 12:02:55;;;;;;;5.55;3.63;;;14.70;63.30;;;;;;5033583;28;20104;-47
2021/10/03 12:05:22;;;;;;;7.57;3.67;;;14.70;63.30;;;;;;5028039;28;20057;-47
2021/10/03 12:08:12;;;;;;;5.60;3.40;;;14.70;63.60;;;;;;5032921;28;20021;-46
2021/10/03 12:10:51;;;;;;;3.30;3.00;;;14.70;62.90;;;;;;5033123;28;20040;-47
2021/10/03 12:13:22;;;;;;;3.38;3.08;;;14.70;62.70;;;;;;5033282;28;20036;-47
2021/10/03 12:15:50;;;;;;;3.92;3.00;;;14.80;62.00;;;;;;5032910;28;20030;-47
2021/10/03 12:18:28;;;;;;;3.05;2.83;;;14.80;61.70;;;;;;5033204;28;20041;-47
2021/10/03 12:21:07;;;;;;;3.78;3.20;;;14.80;61.50;;;;;;5032772;28;20088;-47
2021/10/03 12:23:44;;;;;;;3.38;2.90;;;14.80;61.10;;;;;;5032916;28;20032;-47
2021/10/03 12:26:34;;;;;;;3.15;2.88;;;14.80;60.70;;;;;;5032261;28;20038;-47
2021/10/03 12:29:08;;;;;;;3.80;3.40;;;14.90;60.30;;;;;;5033339;28;20030;-47
2021/10/03 12:31:36;;;;;;;3.95;3.55;;;14.90;59.70;;;;;;5032846;28;20493;-47
2021/10/03 12:34:26;;;;;;;4.13;3.60;;;14.90;59.50;;;;;;5032992;28;20071;-46
2021/10/03 12:36:55;;;;;;;5.68;3.92;;;14.90;59.10;;;;;;5025168;28;20389;-46
2021/10/03 12:39:30;;;;;;;3.97;3.58;;;14.90;59.60;;;;;;5032484;28;20077;-47
2021/10/03 12:42:01;;;;;;;5.15;4.50;;;14.90;59.60;;;;;;5028136;28;20053;-46
2021/10/03 12:44:31;;;;;;;5.55;4.47;;;14.90;59.40;;;;;;5032467;28;20544;-47
2021/10/03 12:46:57;;;;;;;6.05;4.38;;;14.90;59.20;;;;;;5032921;28;20017;-47
2021/10/03 12:49:23;;;;;;;5.20;4.70;;;14.90;58.80;;;;;;5032551;28;20037;-47
2021/10/03 12:51:49;;;;;;;5.43;4.60;;;14.90;58.00;;;;;;5032068;28;20021;-47
2021/10/03 12:54:14;;;;;;;5.30;4.40;;;14.90;57.90;;;;;;5032647;28;20385;-47
2021/10/03 12:56:41;;;;;;;5.30;4.18;;;14.90;58.10;;;;;;5031822;28;20388;-47